sensor_id;sensor_type;location;lat;lon;timestamp;P1;durP1;ratioP1;P2;durP2;ratioP2
55218;SDS011;65463;43.864;20.136;2023-03-30T00:02:25;25.13;;;5.90;;
55218;SDS011;65463;43.864;20.136;2023-03-30T00:04:55;17.75;;;6.88;;
55218;SDS011;65463;43.864;20.136;2023-03-30T00:07:26;20.38;;;6.82;;
55218;SDS011;65463;43.864;20.136;2023-03-30T00:09:54;30.42;;;6.20;;
55218;SDS011;65463;43.864;20.136;2023-03-30T00:12:20;24.88;;;6.03;;
55218;SDS011;65463;43.864;20.136;2023-03-30T00:14:47;18.20;;;5.95;;
55218;SDS011;65463;43.864;20.136;2023-03-30T00:17:14;16.50;;;6.10;;
55218;SDS011;65463;43.864;20.136;2023-03-30T00:19:40;17.17;;;6.45;;
55218;SDS011;65463;43.864;20.136;2023-03-30T00:22:07;23.60;;;7.90;;
55218;SDS011;65463;43.864;20.136;2023-03-30T00:24:34;26.23;;;8.38;;
55218;SDS011;65463;43.864;20.136;2023-03-30T00:27:01;26.83;;;8.13;;
55218;SDS011;65463;43.864;20.136;2023-03-30T00:29:27;26.20;;;7.70;;
55218;SDS011;65463;43.864;20.136;2023-03-30T00:31:53;26.65;;;7.15;;
55218;SDS011;65463;43.864;20.136;2023-03-30T00:34:20;20.75;;;7.10;;
55218;SDS011;65463;43.864;20.136;2023-03-30T00:36:46;26.80;;;7.00;;
55218;SDS011;65463;43.864;20.136;2023-03-30T00:39:13;22.05;;;6.35;;
55218;SDS011;65463;43.864;20.136;2023-03-30T00:41:43;26.25;;;8.02;;
55218;SDS011;65463;43.864;20.136;2023-03-30T00:46:54;31.02;;;8.13;;
55218;SDS011;65463;43.864;20.136;2023-03-30T00:49:20;26.40;;;8.35;;
55218;SDS011;65463;43.864;20.136;2023-03-30T00:51:47;30.55;;;10.05;;
55218;SDS011;65463;43.864;20.136;2023-03-30T00:54:15;32.80;;;9.80;;
55218;SDS011;65463;43.864;20.136;2023-03-30T00:56:44;28.95;;;8.68;;
55218;SDS011;65463;43.864;20.136;2023-03-30T00:59:11;25.20;;;8.15;;
55218;SDS011;65463;43.864;20.136;2023-03-30T01:01:38;23.50;;;7.63;;
55218;SDS011;65463;43.864;20.136;2023-03-30T01:04:05;20.58;;;7.63;;
55218;SDS011;65463;43.864;20.136;2023-03-30T01:06:33;25.13;;;7.00;;
55218;SDS011;65463;43.864;20.136;2023-03-30T01:08:59;25.52;;;7.57;;
55218;SDS011;65463;43.864;20.136;2023-03-30T01:11:26;25.13;;;7.82;;
55218;SDS011;65463;43.864;20.136;2023-03-30T01:13:54;27.70;;;7.70;;
55218;SDS011;65463;43.864;20.136;2023-03-30T01:26:49;22.70;;;8.27;;
55218;SDS011;65463;43.864;20.136;2023-03-30T01:29:23;26.48;;;8.13;;
55218;SDS011;65463;43.864;20.136;2023-03-30T01:35:09;25.67;;;8.98;;
55218;SDS011;65463;43.864;20.136;2023-03-30T01:38:01;30.75;;;9.65;;
55218;SDS011;65463;43.864;20.136;2023-03-30T01:40:07;25.45;;;8.95;;
55218;SDS011;65463;43.864;20.136;2023-03-30T01:42:48;27.73;;;9.30;;
55218;SDS011;65463;43.864;20.136;2023-03-30T01:47:48;26.02;;;8.18;;
55218;SDS011;65463;43.864;20.136;2023-03-30T01:50:21;26.48;;;8.38;;
55218;SDS011;65463;43.864;20.136;2023-03-30T01:55:53;21.98;;;7.13;;
55218;SDS011;65463;43.864;20.136;2023-03-30T01:58:22;23.75;;;7.82;;
55218;SDS011;65463;43.864;20.136;2023-03-30T02:00:51;29.67;;;8.20;;
55218;SDS011;65463;43.864;20.136;2023-03-30T02:03:23;25.58;;;7.57;;
55218;SDS011;65463;43.864;20.136;2023-03-30T02:05:55;24.08;;;7.45;;
55218;SDS011;65463;43.864;20.136;2023-03-30T02:08:23;22.77;;;7.78;;
55218;SDS011;65463;43.864;20.136;2023-03-30T02:10:51;24.73;;;8.07;;
55218;SDS011;65463;43.864;20.136;2023-03-30T02:13:18;27.88;;;7.68;;
55218;SDS011;65463;43.864;20.136;2023-03-30T02:15:46;23.08;;;7.80;;
55218;SDS011;65463;43.864;20.136;2023-03-30T02:18:13;22.38;;;7.40;;
55218;SDS011;65463;43.864;20.136;2023-03-30T02:20:39;23.70;;;8.10;;
55218;SDS011;65463;43.864;20.136;2023-03-30T02:23:06;23.83;;;8.00;;
55218;SDS011;65463;43.864;20.136;2023-03-30T02:25:33;26.08;;;8.52;;
55218;SDS011;65463;43.864;20.136;2023-03-30T02:28:02;25.80;;;8.50;;
55218;SDS011;65463;43.864;20.136;2023-03-30T02:30:35;22.23;;;8.18;;
55218;SDS011;65463;43.864;20.136;2023-03-30T02:33:04;26.58;;;7.95;;
55218;SDS011;65463;43.864;20.136;2023-03-30T02:43:44;25.38;;;8.02;;
55218;SDS011;65463;43.864;20.136;2023-03-30T02:46:20;25.08;;;8.07;;
55218;SDS011;65463;43.864;20.136;2023-03-30T02:48:58;29.83;;;8.75;;
55218;SDS011;65463;43.864;20.136;2023-03-30T02:53:57;23.77;;;7.82;;
55218;SDS011;65463;43.864;20.136;2023-03-30T02:56:35;28.95;;;8.00;;
55218;SDS011;65463;43.864;20.136;2023-03-30T02:59:07;27.17;;;7.90;;
55218;SDS011;65463;43.864;20.136;2023-03-30T03:01:42;24.55;;;7.72;;
55218;SDS011;65463;43.864;20.136;2023-03-30T03:04:10;22.25;;;8.15;;
55218;SDS011;65463;43.864;20.136;2023-03-30T03:06:37;25.38;;;8.05;;
55218;SDS011;65463;43.864;20.136;2023-03-30T03:09:03;22.83;;;7.90;;
55218;SDS011;65463;43.864;20.136;2023-03-30T03:11:30;26.35;;;8.13;;
55218;SDS011;65463;43.864;20.136;2023-03-30T03:13:56;17.95;;;7.63;;
55218;SDS011;65463;43.864;20.136;2023-03-30T03:16:22;27.42;;;8.25;;
55218;SDS011;65463;43.864;20.136;2023-03-30T03:18:48;26.30;;;7.93;;
55218;SDS011;65463;43.864;20.136;2023-03-30T03:21:15;18.65;;;7.45;;
55218;SDS011;65463;43.864;20.136;2023-03-30T03:23:41;24.77;;;8.55;;
55218;SDS011;65463;43.864;20.136;2023-03-30T03:26:08;28.52;;;8.02;;
55218;SDS011;65463;43.864;20.136;2023-03-30T03:28:35;22.80;;;7.22;;
55218;SDS011;65463;43.864;20.136;2023-03-30T03:31:02;29.02;;;7.70;;
55218;SDS011;65463;43.864;20.136;2023-03-30T03:33:30;24.00;;;7.03;;
55218;SDS011;65463;43.864;20.136;2023-03-30T03:35:56;24.70;;;6.65;;
55218;SDS011;65463;43.864;20.136;2023-03-30T03:38:24;22.67;;;6.57;;
55218;SDS011;65463;43.864;20.136;2023-03-30T03:40:52;23.75;;;7.35;;
55218;SDS011;65463;43.864;20.136;2023-03-30T03:43:18;24.45;;;6.65;;
55218;SDS011;65463;43.864;20.136;2023-03-30T03:45:45;17.45;;;6.60;;
55218;SDS011;65463;43.864;20.136;2023-03-30T03:48:15;17.05;;;6.50;;
55218;SDS011;65463;43.864;20.136;2023-03-30T03:53:08;20.60;;;6.28;;
55218;SDS011;65463;43.864;20.136;2023-03-30T03:55:34;22.55;;;6.30;;
55218;SDS011;65463;43.864;20.136;2023-03-30T03:58:02;20.17;;;6.63;;
55218;SDS011;65463;43.864;20.136;2023-03-30T04:00:28;19.13;;;6.70;;
55218;SDS011;65463;43.864;20.136;2023-03-30T04:02:54;16.52;;;6.63;;
55218;SDS011;65463;43.864;20.136;2023-03-30T04:05:21;19.83;;;7.15;;
55218;SDS011;65463;43.864;20.136;2023-03-30T04:07:47;23.13;;;6.63;;
55218;SDS011;65463;43.864;20.136;2023-03-30T04:10:14;23.60;;;6.90;;
55218;SDS011;65463;43.864;20.136;2023-03-30T04:12:40;27.33;;;7.20;;
55218;SDS011;65463;43.864;20.136;2023-03-30T04:15:06;23.65;;;7.30;;
55218;SDS011;65463;43.864;20.136;2023-03-30T04:17:32;18.48;;;7.40;;
55218;SDS011;65463;43.864;20.136;2023-03-30T04:19:59;22.30;;;7.28;;
55218;SDS011;65463;43.864;20.136;2023-03-30T04:22:26;27.77;;;7.63;;
55218;SDS011;65463;43.864;20.136;2023-03-30T04:24:57;22.83;;;7.03;;
55218;SDS011;65463;43.864;20.136;2023-03-30T04:27:23;21.38;;;6.65;;
55218;SDS011;65463;43.864;20.136;2023-03-30T04:29:50;15.93;;;6.38;;
55218;SDS011;65463;43.864;20.136;2023-03-30T04:32:16;18.58;;;5.90;;
55218;SDS011;65463;43.864;20.136;2023-03-30T04:34:47;18.38;;;6.30;;
55218;SDS011;65463;43.864;20.136;2023-03-30T04:37:19;18.75;;;6.28;;
55218;SDS011;65463;43.864;20.136;2023-03-30T04:40:01;19.83;;;5.97;;
55218;SDS011;65463;43.864;20.136;2023-03-30T04:42:32;16.08;;;6.20;;
55218;SDS011;65463;43.864;20.136;2023-03-30T04:45:05;16.57;;;5.90;;
55218;SDS011;65463;43.864;20.136;2023-03-30T04:47:31;29.40;;;6.55;;
55218;SDS011;65463;43.864;20.136;2023-03-30T04:49:57;22.92;;;6.93;;
55218;SDS011;65463;43.864;20.136;2023-03-30T04:52:24;23.92;;;6.63;;
55218;SDS011;65463;43.864;20.136;2023-03-30T04:54:50;25.60;;;7.28;;
55218;SDS011;65463;43.864;20.136;2023-03-30T04:57:16;32.17;;;10.50;;
55218;SDS011;65463;43.864;20.136;2023-03-30T04:59:43;29.08;;;8.02;;
55218;SDS011;65463;43.864;20.136;2023-03-30T05:02:09;35.90;;;9.25;;
55218;SDS011;65463;43.864;20.136;2023-03-30T05:04:36;31.70;;;8.18;;
55218;SDS011;65463;43.864;20.136;2023-03-30T05:07:06;33.80;;;8.30;;
55218;SDS011;65463;43.864;20.136;2023-03-30T05:09:33;35.90;;;8.85;;
55218;SDS011;65463;43.864;20.136;2023-03-30T05:11:59;30.52;;;8.90;;
55218;SDS011;65463;43.864;20.136;2023-03-30T05:14:25;38.03;;;9.10;;
55218;SDS011;65463;43.864;20.136;2023-03-30T05:16:51;50.42;;;15.38;;
55218;SDS011;65463;43.864;20.136;2023-03-30T05:19:17;27.98;;;10.07;;
55218;SDS011;65463;43.864;20.136;2023-03-30T05:21:44;35.60;;;9.90;;
55218;SDS011;65463;43.864;20.136;2023-03-30T05:24:12;32.40;;;8.57;;
55218;SDS011;65463;43.864;20.136;2023-03-30T05:26:38;35.20;;;8.43;;
55218;SDS011;65463;43.864;20.136;2023-03-30T05:29:05;39.63;;;9.45;;
55218;SDS011;65463;43.864;20.136;2023-03-30T05:31:31;34.83;;;9.00;;
55218;SDS011;65463;43.864;20.136;2023-03-30T05:33:57;47.35;;;9.32;;
55218;SDS011;65463;43.864;20.136;2023-03-30T05:36:24;38.75;;;9.65;;
55218;SDS011;65463;43.864;20.136;2023-03-30T05:38:50;31.35;;;8.20;;
55218;SDS011;65463;43.864;20.136;2023-03-30T05:41:16;29.67;;;7.18;;
55218;SDS011;65463;43.864;20.136;2023-03-30T05:43:43;31.42;;;8.60;;
55218;SDS011;65463;43.864;20.136;2023-03-30T05:46:09;36.10;;;10.15;;
55218;SDS011;65463;43.864;20.136;2023-03-30T05:48:36;30.95;;;9.90;;
55218;SDS011;65463;43.864;20.136;2023-03-30T05:51:02;21.27;;;7.72;;
55218;SDS011;65463;43.864;20.136;2023-03-30T05:53:28;25.95;;;7.95;;
55218;SDS011;65463;43.864;20.136;2023-03-30T05:55:55;26.40;;;7.88;;
55218;SDS011;65463;43.864;20.136;2023-03-30T05:58:21;34.13;;;9.90;;
55218;SDS011;65463;43.864;20.136;2023-03-30T06:00:47;29.65;;;7.97;;
55218;SDS011;65463;43.864;20.136;2023-03-30T06:03:16;34.47;;;9.52;;
55218;SDS011;65463;43.864;20.136;2023-03-30T06:05:42;35.10;;;10.13;;
55218;SDS011;65463;43.864;20.136;2023-03-30T06:08:10;37.90;;;10.68;;
55218;SDS011;65463;43.864;20.136;2023-03-30T06:10:36;26.52;;;9.10;;
55218;SDS011;65463;43.864;20.136;2023-03-30T06:13:02;51.83;;;14.05;;
55218;SDS011;65463;43.864;20.136;2023-03-30T06:15:29;35.63;;;11.02;;
55218;SDS011;65463;43.864;20.136;2023-03-30T06:17:55;48.10;;;18.05;;
55218;SDS011;65463;43.864;20.136;2023-03-30T06:20:23;38.95;;;10.48;;
55218;SDS011;65463;43.864;20.136;2023-03-30T06:22:50;29.58;;;9.50;;
55218;SDS011;65463;43.864;20.136;2023-03-30T06:25:17;38.28;;;10.43;;
55218;SDS011;65463;43.864;20.136;2023-03-30T06:27:47;32.65;;;9.82;;
55218;SDS011;65463;43.864;20.136;2023-03-30T06:30:13;37.35;;;10.68;;
55218;SDS011;65463;43.864;20.136;2023-03-30T06:32:40;33.50;;;9.60;;
55218;SDS011;65463;43.864;20.136;2023-03-30T06:35:06;36.75;;;9.77;;
55218;SDS011;65463;43.864;20.136;2023-03-30T06:37:32;33.90;;;12.32;;
55218;SDS011;65463;43.864;20.136;2023-03-30T06:40:02;42.97;;;10.50;;
55218;SDS011;65463;43.864;20.136;2023-03-30T06:42:32;35.25;;;10.50;;
55218;SDS011;65463;43.864;20.136;2023-03-30T06:44:58;38.67;;;10.35;;
55218;SDS011;65463;43.864;20.136;2023-03-30T06:47:25;34.78;;;9.05;;
55218;SDS011;65463;43.864;20.136;2023-03-30T06:49:51;27.23;;;8.57;;
55218;SDS011;65463;43.864;20.136;2023-03-30T06:52:17;80.95;;;25.10;;
55218;SDS011;65463;43.864;20.136;2023-03-30T06:54:43;75.88;;;10.57;;
55218;SDS011;65463;43.864;20.136;2023-03-30T06:57:09;64.13;;;10.57;;
55218;SDS011;65463;43.864;20.136;2023-03-30T06:59:35;63.30;;;10.80;;
55218;SDS011;65463;43.864;20.136;2023-03-30T07:02:01;74.72;;;13.85;;
55218;SDS011;65463;43.864;20.136;2023-03-30T07:04:28;66.43;;;12.50;;
55218;SDS011;65463;43.864;20.136;2023-03-30T07:06:54;70.40;;;11.65;;
55218;SDS011;65463;43.864;20.136;2023-03-30T07:09:24;64.00;;;12.00;;
55218;SDS011;65463;43.864;20.136;2023-03-30T07:11:50;59.22;;;12.30;;
55218;SDS011;65463;43.864;20.136;2023-03-30T07:14:17;50.60;;;12.15;;
55218;SDS011;65463;43.864;20.136;2023-03-30T07:16:43;33.83;;;10.65;;
55218;SDS011;65463;43.864;20.136;2023-03-30T07:19:09;33.97;;;10.57;;
55218;SDS011;65463;43.864;20.136;2023-03-30T07:21:35;31.40;;;10.07;;
55218;SDS011;65463;43.864;20.136;2023-03-30T07:24:02;31.00;;;9.52;;
55218;SDS011;65463;43.864;20.136;2023-03-30T07:26:28;29.27;;;9.45;;
55218;SDS011;65463;43.864;20.136;2023-03-30T07:28:55;25.70;;;10.60;;
55218;SDS011;65463;43.864;20.136;2023-03-30T07:31:21;24.98;;;8.88;;
55218;SDS011;65463;43.864;20.136;2023-03-30T07:33:48;17.85;;;6.30;;
55218;SDS011;65463;43.864;20.136;2023-03-30T07:36:15;20.77;;;6.32;;
55218;SDS011;65463;43.864;20.136;2023-03-30T07:38:41;18.52;;;5.38;;
55218;SDS011;65463;43.864;20.136;2023-03-30T07:41:08;17.02;;;5.68;;
55218;SDS011;65463;43.864;20.136;2023-03-30T07:43:34;14.27;;;5.78;;
55218;SDS011;65463;43.864;20.136;2023-03-30T07:46:01;16.92;;;4.68;;
55218;SDS011;65463;43.864;20.136;2023-03-30T07:48:28;22.60;;;5.28;;
55218;SDS011;65463;43.864;20.136;2023-03-30T07:53:50;29.20;;;6.00;;
55218;SDS011;65463;43.864;20.136;2023-03-30T07:56:16;20.13;;;4.63;;
55218;SDS011;65463;43.864;20.136;2023-03-30T07:58:42;30.25;;;6.07;;
55218;SDS011;65463;43.864;20.136;2023-03-30T08:01:08;34.70;;;6.10;;
55218;SDS011;65463;43.864;20.136;2023-03-30T08:03:35;20.00;;;5.35;;
55218;SDS011;65463;43.864;20.136;2023-03-30T08:06:02;20.95;;;4.38;;
55218;SDS011;65463;43.864;20.136;2023-03-30T08:08:32;17.90;;;4.25;;
55218;SDS011;65463;43.864;20.136;2023-03-30T08:10:59;18.52;;;4.15;;
55218;SDS011;65463;43.864;20.136;2023-03-30T08:13:25;21.02;;;4.15;;
55218;SDS011;65463;43.864;20.136;2023-03-30T08:15:52;18.23;;;4.03;;
55218;SDS011;65463;43.864;20.136;2023-03-30T08:18:18;19.15;;;4.13;;
55218;SDS011;65463;43.864;20.136;2023-03-30T08:20:48;24.70;;;4.45;;
55218;SDS011;65463;43.864;20.136;2023-03-30T08:23:14;12.80;;;3.85;;
55218;SDS011;65463;43.864;20.136;2023-03-30T08:25:40;17.15;;;3.97;;
55218;SDS011;65463;43.864;20.136;2023-03-30T08:28:07;17.45;;;4.05;;
55218;SDS011;65463;43.864;20.136;2023-03-30T08:30:33;15.70;;;3.65;;
55218;SDS011;65463;43.864;20.136;2023-03-30T08:33:04;12.45;;;3.72;;
55218;SDS011;65463;43.864;20.136;2023-03-30T08:35:33;12.82;;;4.55;;
55218;SDS011;65463;43.864;20.136;2023-03-30T08:37:59;18.35;;;3.53;;
55218;SDS011;65463;43.864;20.136;2023-03-30T08:40:25;11.45;;;3.10;;
55218;SDS011;65463;43.864;20.136;2023-03-30T08:43:08;13.27;;;3.47;;
55218;SDS011;65463;43.864;20.136;2023-03-30T08:45:37;8.93;;;3.00;;
55218;SDS011;65463;43.864;20.136;2023-03-30T08:48:11;12.65;;;3.30;;
55218;SDS011;65463;43.864;20.136;2023-03-30T08:50:39;10.85;;;3.05;;
55218;SDS011;65463;43.864;20.136;2023-03-30T08:53:07;11.05;;;2.63;;
55218;SDS011;65463;43.864;20.136;2023-03-30T09:06:02;10.40;;;2.20;;
55218;SDS011;65463;43.864;20.136;2023-03-30T09:08:32;10.77;;;2.40;;
55218;SDS011;65463;43.864;20.136;2023-03-30T09:10:59;9.77;;;2.63;;
55218;SDS011;65463;43.864;20.136;2023-03-30T09:13:35;11.93;;;2.35;;
55218;SDS011;65463;43.864;20.136;2023-03-30T09:20:55;8.43;;;2.38;;
55218;SDS011;65463;43.864;20.136;2023-03-30T09:23:22;7.18;;;2.13;;
55218;SDS011;65463;43.864;20.136;2023-03-30T09:26:00;6.97;;;2.10;;
55218;SDS011;65463;43.864;20.136;2023-03-30T09:31:16;14.10;;;3.75;;
55218;SDS011;65463;43.864;20.136;2023-03-30T09:33:56;8.68;;;2.10;;
55218;SDS011;65463;43.864;20.136;2023-03-30T09:38:50;3.13;;;1.42;;
55218;SDS011;65463;43.864;20.136;2023-03-30T09:44:01;5.93;;;2.38;;
55218;SDS011;65463;43.864;20.136;2023-03-30T09:46:28;6.68;;;1.58;;
55218;SDS011;65463;43.864;20.136;2023-03-30T09:48:54;4.65;;;1.63;;
55218;SDS011;65463;43.864;20.136;2023-03-30T09:51:36;7.65;;;2.85;;
55218;SDS011;65463;43.864;20.136;2023-03-30T09:54:18;3.47;;;1.60;;
55218;SDS011;65463;43.864;20.136;2023-03-30T09:56:46;3.33;;;1.67;;
55218;SDS011;65463;43.864;20.136;2023-03-30T09:59:19;3.42;;;1.52;;
55218;SDS011;65463;43.864;20.136;2023-03-30T10:01:47;7.28;;;2.22;;
55218;SDS011;65463;43.864;20.136;2023-03-30T10:04:13;10.32;;;3.60;;
55218;SDS011;65463;43.864;20.136;2023-03-30T10:06:47;4.32;;;1.40;;
55218;SDS011;65463;43.864;20.136;2023-03-30T10:09:21;4.18;;;1.75;;
55218;SDS011;65463;43.864;20.136;2023-03-30T10:11:48;4.95;;;1.42;;
55218;SDS011;65463;43.864;20.136;2023-03-30T10:14:26;4.65;;;1.40;;
55218;SDS011;65463;43.864;20.136;2023-03-30T10:16:53;7.40;;;1.25;;
55218;SDS011;65463;43.864;20.136;2023-03-30T10:19:20;5.20;;;2.35;;
55218;SDS011;65463;43.864;20.136;2023-03-30T10:21:47;19.92;;;8.48;;
55218;SDS011;65463;43.864;20.136;2023-03-30T10:26:42;44.13;;;23.05;;
55218;SDS011;65463;43.864;20.136;2023-03-30T10:29:13;18.20;;;10.70;;
55218;SDS011;65463;43.864;20.136;2023-03-30T10:31:48;13.10;;;6.95;;
55218;SDS011;65463;43.864;20.136;2023-03-30T10:34:37;5.40;;;1.48;;
55218;SDS011;65463;43.864;20.136;2023-03-30T10:37:08;7.45;;;3.78;;
55218;SDS011;65463;43.864;20.136;2023-03-30T10:39:35;2.75;;;1.35;;
55218;SDS011;65463;43.864;20.136;2023-03-30T10:42:07;18.17;;;8.93;;
55218;SDS011;65463;43.864;20.136;2023-03-30T10:44:50;23.92;;;12.50;;
55218;SDS011;65463;43.864;20.136;2023-03-30T10:58:20;22.08;;;5.40;;
55218;SDS011;65463;43.864;20.136;2023-03-30T11:03:30;9.20;;;2.85;;
55218;SDS011;65463;43.864;20.136;2023-03-30T11:06:00;2.92;;;1.20;;
55218;SDS011;65463;43.864;20.136;2023-03-30T11:08:29;5.35;;;1.30;;
55218;SDS011;65463;43.864;20.136;2023-03-30T11:10:58;3.17;;;1.10;;
55218;SDS011;65463;43.864;20.136;2023-03-30T11:13:27;5.35;;;1.42;;
55218;SDS011;65463;43.864;20.136;2023-03-30T11:23:30;3.15;;;1.25;;
55218;SDS011;65463;43.864;20.136;2023-03-30T11:26:00;3.22;;;1.17;;
55218;SDS011;65463;43.864;20.136;2023-03-30T11:31:03;4.75;;;1.52;;
55218;SDS011;65463;43.864;20.136;2023-03-30T11:36:01;27.33;;;10.90;;
55218;SDS011;65463;43.864;20.136;2023-03-30T11:43:27;4.15;;;1.20;;
55218;SDS011;65463;43.864;20.136;2023-03-30T12:02:10;6.03;;;1.70;;
55218;SDS011;65463;43.864;20.136;2023-03-30T12:07:15;2.67;;;1.30;;
55218;SDS011;65463;43.864;20.136;2023-03-30T12:10:02;4.38;;;1.10;;
55218;SDS011;65463;43.864;20.136;2023-03-30T12:12:32;2.75;;;1.08;;
55218;SDS011;65463;43.864;20.136;2023-03-30T12:20:20;2.55;;;0.68;;
55218;SDS011;65463;43.864;20.136;2023-03-30T12:28:24;1.45;;;0.70;;
55218;SDS011;65463;43.864;20.136;2023-03-30T12:30:57;5.53;;;0.80;;
55218;SDS011;65463;43.864;20.136;2023-03-30T12:33:25;1.63;;;0.73;;
55218;SDS011;65463;43.864;20.136;2023-03-30T12:36:00;1.80;;;0.65;;
55218;SDS011;65463;43.864;20.136;2023-03-30T12:38:42;1.98;;;1.00;;
55218;SDS011;65463;43.864;20.136;2023-03-30T12:41:13;2.15;;;0.70;;
55218;SDS011;65463;43.864;20.136;2023-03-30T12:46:27;3.03;;;0.60;;
55218;SDS011;65463;43.864;20.136;2023-03-30T12:51:35;1.73;;;0.75;;
55218;SDS011;65463;43.864;20.136;2023-03-30T12:54:42;3.13;;;0.75;;
55218;SDS011;65463;43.864;20.136;2023-03-30T12:57:07;2.10;;;0.80;;
55218;SDS011;65463;43.864;20.136;2023-03-30T13:05:00;4.83;;;0.97;;
55218;SDS011;65463;43.864;20.136;2023-03-30T13:07:28;4.38;;;0.80;;
55218;SDS011;65463;43.864;20.136;2023-03-30T13:10:00;2.88;;;0.88;;
55218;SDS011;65463;43.864;20.136;2023-03-30T13:14:57;2.97;;;1.27;;
55218;SDS011;65463;43.864;20.136;2023-03-30T13:17:23;3.38;;;0.90;;
55218;SDS011;65463;43.864;20.136;2023-03-30T13:22:39;1.15;;;0.60;;
55218;SDS011;65463;43.864;20.136;2023-03-30T13:27:43;2.40;;;0.80;;
55218;SDS011;65463;43.864;20.136;2023-03-30T13:30:12;1.98;;;0.70;;
55218;SDS011;65463;43.864;20.136;2023-03-30T13:32:59;1.30;;;0.60;;
55218;SDS011;65463;43.864;20.136;2023-03-30T13:38:35;2.42;;;0.90;;
55218;SDS011;65463;43.864;20.136;2023-03-30T13:46:26;1.75;;;0.70;;
55218;SDS011;65463;43.864;20.136;2023-03-30T13:48:57;2.92;;;0.80;;
55218;SDS011;65463;43.864;20.136;2023-03-30T13:51:25;2.22;;;1.05;;
55218;SDS011;65463;43.864;20.136;2023-03-30T13:54:03;2.45;;;0.60;;
55218;SDS011;65463;43.864;20.136;2023-03-30T13:56:35;2.97;;;0.88;;
55218;SDS011;65463;43.864;20.136;2023-03-30T13:59:09;1.60;;;0.70;;
55218;SDS011;65463;43.864;20.136;2023-03-30T14:01:38;2.35;;;0.80;;
55218;SDS011;65463;43.864;20.136;2023-03-30T14:04:08;2.40;;;0.90;;
55218;SDS011;65463;43.864;20.136;2023-03-30T14:06:40;1.73;;;0.90;;
55218;SDS011;65463;43.864;20.136;2023-03-30T14:09:10;1.63;;;0.75;;
55218;SDS011;65463;43.864;20.136;2023-03-30T14:11:47;1.48;;;0.60;;
55218;SDS011;65463;43.864;20.136;2023-03-30T14:14:15;2.10;;;0.60;;
55218;SDS011;65463;43.864;20.136;2023-03-30T14:16:44;4.95;;;0.70;;
55218;SDS011;65463;43.864;20.136;2023-03-30T14:21:43;2.45;;;1.02;;
55218;SDS011;65463;43.864;20.136;2023-03-30T14:24:17;1.98;;;0.85;;
55218;SDS011;65463;43.864;20.136;2023-03-30T14:26:50;2.13;;;0.90;;
55218;SDS011;65463;43.864;20.136;2023-03-30T14:29:17;2.28;;;1.00;;
55218;SDS011;65463;43.864;20.136;2023-03-30T14:31:45;2.30;;;0.90;;
55218;SDS011;65463;43.864;20.136;2023-03-30T14:36:46;2.40;;;0.93;;
55218;SDS011;65463;43.864;20.136;2023-03-30T14:39:20;4.85;;;0.93;;
55218;SDS011;65463;43.864;20.136;2023-03-30T14:41:48;3.15;;;0.93;;
55218;SDS011;65463;43.864;20.136;2023-03-30T14:44:15;2.97;;;0.70;;
55218;SDS011;65463;43.864;20.136;2023-03-30T14:46:43;2.92;;;0.88;;
55218;SDS011;65463;43.864;20.136;2023-03-30T14:49:26;5.07;;;0.90;;
55218;SDS011;65463;43.864;20.136;2023-03-30T14:54:20;3.03;;;1.35;;
55218;SDS011;65463;43.864;20.136;2023-03-30T14:56:51;4.90;;;1.80;;
55218;SDS011;65463;43.864;20.136;2023-03-30T14:59:18;2.28;;;1.15;;
55218;SDS011;65463;43.864;20.136;2023-03-30T15:01:44;2.38;;;0.90;;
55218;SDS011;65463;43.864;20.136;2023-03-30T15:04:14;2.88;;;1.05;;
55218;SDS011;65463;43.864;20.136;2023-03-30T15:09:18;3.75;;;0.88;;
55218;SDS011;65463;43.864;20.136;2023-03-30T15:11:46;2.65;;;1.13;;
55218;SDS011;65463;43.864;20.136;2023-03-30T15:14:14;3.08;;;1.25;;
55218;SDS011;65463;43.864;20.136;2023-03-30T15:16:42;3.88;;;1.60;;
55218;SDS011;65463;43.864;20.136;2023-03-30T15:21:38;3.70;;;1.00;;
55218;SDS011;65463;43.864;20.136;2023-03-30T15:24:06;2.38;;;1.00;;
55218;SDS011;65463;43.864;20.136;2023-03-30T15:26:32;4.20;;;1.13;;
55218;SDS011;65463;43.864;20.136;2023-03-30T15:28:59;3.58;;;1.00;;
55218;SDS011;65463;43.864;20.136;2023-03-30T15:31:26;3.53;;;1.10;;
55218;SDS011;65463;43.864;20.136;2023-03-30T15:33:53;2.08;;;1.17;;
55218;SDS011;65463;43.864;20.136;2023-03-30T15:36:25;4.53;;;1.30;;
55218;SDS011;65463;43.864;20.136;2023-03-30T15:38:57;2.28;;;0.93;;
55218;SDS011;65463;43.864;20.136;2023-03-30T15:41:41;1.90;;;1.00;;
55218;SDS011;65463;43.864;20.136;2023-03-30T15:44:09;4.13;;;1.30;;
55218;SDS011;65463;43.864;20.136;2023-03-30T15:46:35;2.42;;;1.08;;
55218;SDS011;65463;43.864;20.136;2023-03-30T15:49:03;3.08;;;1.23;;
55218;SDS011;65463;43.864;20.136;2023-03-30T15:51:30;5.28;;;1.40;;
55218;SDS011;65463;43.864;20.136;2023-03-30T15:54:03;2.85;;;1.20;;
55218;SDS011;65463;43.864;20.136;2023-03-30T15:56:47;3.80;;;1.38;;
55218;SDS011;65463;43.864;20.136;2023-03-30T15:59:14;2.85;;;1.15;;
55218;SDS011;65463;43.864;20.136;2023-03-30T16:01:50;5.82;;;1.75;;
55218;SDS011;65463;43.864;20.136;2023-03-30T16:04:18;4.47;;;1.50;;
55218;SDS011;65463;43.864;20.136;2023-03-30T16:06:45;6.63;;;1.38;;
55218;SDS011;65463;43.864;20.136;2023-03-30T16:09:13;5.07;;;2.00;;
55218;SDS011;65463;43.864;20.136;2023-03-30T16:11:40;3.53;;;1.52;;
55218;SDS011;65463;43.864;20.136;2023-03-30T16:14:09;4.65;;;1.67;;
55218;SDS011;65463;43.864;20.136;2023-03-30T16:16:35;7.85;;;1.45;;
55218;SDS011;65463;43.864;20.136;2023-03-30T16:19:02;5.00;;;1.38;;
55218;SDS011;65463;43.864;20.136;2023-03-30T16:21:28;5.43;;;1.33;;
55218;SDS011;65463;43.864;20.136;2023-03-30T16:23:54;5.63;;;1.55;;
55218;SDS011;65463;43.864;20.136;2023-03-30T16:26:20;4.65;;;1.70;;
55218;SDS011;65463;43.864;20.136;2023-03-30T16:28:48;11.25;;;3.58;;
55218;SDS011;65463;43.864;20.136;2023-03-30T16:31:17;6.82;;;2.42;;
55218;SDS011;65463;43.864;20.136;2023-03-30T16:33:44;4.80;;;1.67;;
55218;SDS011;65463;43.864;20.136;2023-03-30T16:36:11;4.15;;;1.75;;
55218;SDS011;65463;43.864;20.136;2023-03-30T16:38:39;7.30;;;1.70;;
55218;SDS011;65463;43.864;20.136;2023-03-30T16:41:09;10.30;;;2.30;;
55218;SDS011;65463;43.864;20.136;2023-03-30T16:43:36;12.57;;;3.10;;
55218;SDS011;65463;43.864;20.136;2023-03-30T16:46:02;7.93;;;3.20;;
55218;SDS011;65463;43.864;20.136;2023-03-30T16:48:28;12.10;;;3.75;;
55218;SDS011;65463;43.864;20.136;2023-03-30T16:50:54;16.65;;;6.43;;
55218;SDS011;65463;43.864;20.136;2023-03-30T16:53:21;17.15;;;6.22;;
55218;SDS011;65463;43.864;20.136;2023-03-30T16:55:47;24.83;;;7.75;;
55218;SDS011;65463;43.864;20.136;2023-03-30T16:58:13;22.63;;;8.50;;
55218;SDS011;65463;43.864;20.136;2023-03-30T17:00:44;26.05;;;10.60;;
55218;SDS011;65463;43.864;20.136;2023-03-30T17:03:13;27.95;;;10.52;;
55218;SDS011;65463;43.864;20.136;2023-03-30T17:05:39;28.08;;;11.35;;
55218;SDS011;65463;43.864;20.136;2023-03-30T17:08:10;31.25;;;12.95;;
55218;SDS011;65463;43.864;20.136;2023-03-30T17:10:39;27.65;;;11.88;;
55218;SDS011;65463;43.864;20.136;2023-03-30T17:13:05;29.80;;;13.30;;
55218;SDS011;65463;43.864;20.136;2023-03-30T17:15:33;32.30;;;13.63;;
55218;SDS011;65463;43.864;20.136;2023-03-30T17:18:02;33.17;;;14.13;;